sensor_id;sensor_type;location;lat;lon;timestamp;P1;durP1;ratioP1;P2;durP2;ratioP2
36205;SDS011;22242;48.796;9.930;2023-05-20T00:01:51;6.55;;;3.47;;
36205;SDS011;22242;48.796;9.930;2023-05-20T00:04:18;4.10;;;3.42;;
36205;SDS011;22242;48.796;9.930;2023-05-20T00:06:45;6.22;;;3.60;;
36205;SDS011;22242;48.796;9.930;2023-05-20T00:09:12;5.75;;;3.72;;
36205;SDS011;22242;48.796;9.930;2023-05-20T00:11:40;3.92;;;3.10;;
36205;SDS011;22242;48.796;9.930;2023-05-20T00:14:07;5.25;;;3.80;;
36205;SDS011;22242;48.796;9.930;2023-05-20T00:16:34;5.78;;;3.92;;
36205;SDS011;22242;48.796;9.930;2023-05-20T00:19:02;5.95;;;3.70;;
36205;SDS011;22242;48.796;9.930;2023-05-20T00:21:30;6.20;;;4.00;;
36205;SDS011;22242;48.796;9.930;2023-05-20T00:23:58;4.75;;;3.97;;
36205;SDS011;22242;48.796;9.930;2023-05-20T00:26:26;3.78;;;3.45;;
36205;SDS011;22242;48.796;9.930;2023-05-20T00:28:55;5.63;;;4.30;;
36205;SDS011;22242;48.796;9.930;2023-05-20T00:31:23;4.25;;;3.83;;
36205;SDS011;22242;48.796;9.930;2023-05-20T00:33:50;4.85;;;3.90;;
36205;SDS011;22242;48.796;9.930;2023-05-20T00:36:18;4.68;;;3.50;;
36205;SDS011;22242;48.796;9.930;2023-05-20T00:38:45;3.90;;;3.42;;
36205;SDS011;22242;48.796;9.930;2023-05-20T00:41:13;5.63;;;3.60;;
36205;SDS011;22242;48.796;9.930;2023-05-20T00:43:40;5.32;;;3.53;;
36205;SDS011;22242;48.796;9.930;2023-05-20T00:46:07;5.40;;;3.67;;
36205;SDS011;22242;48.796;9.930;2023-05-20T00:48:37;4.10;;;3.47;;
36205;SDS011;22242;48.796;9.930;2023-05-20T00:51:06;4.72;;;3.78;;
36205;SDS011;22242;48.796;9.930;2023-05-20T00:53:35;4.35;;;3.15;;
36205;SDS011;22242;48.796;9.930;2023-05-20T00:56:02;5.47;;;3.47;;
36205;SDS011;22242;48.796;9.930;2023-05-20T00:58:30;3.53;;;3.22;;
36205;SDS011;22242;48.796;9.930;2023-05-20T01:00:57;3.70;;;3.40;;
36205;SDS011;22242;48.796;9.930;2023-05-20T01:03:25;6.55;;;3.92;;
36205;SDS011;22242;48.796;9.930;2023-05-20T01:05:52;6.18;;;3.83;;
36205;SDS011;22242;48.796;9.930;2023-05-20T01:08:19;4.47;;;3.47;;
36205;SDS011;22242;48.796;9.930;2023-05-20T01:10:50;5.22;;;3.45;;
36205;SDS011;22242;48.796;9.930;2023-05-20T01:13:20;5.95;;;3.65;;
36205;SDS011;22242;48.796;9.930;2023-05-20T01:15:52;5.10;;;3.70;;
36205;SDS011;22242;48.796;9.930;2023-05-20T01:18:21;4.35;;;3.58;;
36205;SDS011;22242;48.796;9.930;2023-05-20T01:20:51;3.90;;;3.47;;
36205;SDS011;22242;48.796;9.930;2023-05-20T01:23:31;5.65;;;3.22;;
36205;SDS011;22242;48.796;9.930;2023-05-20T01:25:59;5.63;;;3.40;;
36205;SDS011;22242;48.796;9.930;2023-05-20T01:28:26;5.90;;;4.00;;
36205;SDS011;22242;48.796;9.930;2023-05-20T01:30:56;4.85;;;3.60;;
36205;SDS011;22242;48.796;9.930;2023-05-20T01:33:25;4.10;;;3.70;;
36205;SDS011;22242;48.796;9.930;2023-05-20T01:35:55;5.22;;;3.58;;
36205;SDS011;22242;48.796;9.930;2023-05-20T01:38:24;4.10;;;3.70;;
36205;SDS011;22242;48.796;9.930;2023-05-20T01:40:53;4.13;;;3.30;;
36205;SDS011;22242;48.796;9.930;2023-05-20T01:43:23;4.35;;;3.30;;
36205;SDS011;22242;48.796;9.930;2023-05-20T01:45:51;3.92;;;3.53;;
36205;SDS011;22242;48.796;9.930;2023-05-20T01:48:19;4.35;;;3.83;;
36205;SDS011;22242;48.796;9.930;2023-05-20T01:50:46;4.55;;;4.15;;
36205;SDS011;22242;48.796;9.930;2023-05-20T01:53:13;5.38;;;4.20;;
36205;SDS011;22242;48.796;9.930;2023-05-20T01:55:40;6.78;;;4.68;;
36205;SDS011;22242;48.796;9.930;2023-05-20T01:58:08;6.07;;;3.90;;
36205;SDS011;22242;48.796;9.930;2023-05-20T02:00:35;6.05;;;4.25;;
36205;SDS011;22242;48.796;9.930;2023-05-20T02:03:02;6.22;;;4.25;;
36205;SDS011;22242;48.796;9.930;2023-05-20T02:05:29;5.72;;;3.78;;
36205;SDS011;22242;48.796;9.930;2023-05-20T02:07:56;4.45;;;3.90;;
36205;SDS011;22242;48.796;9.930;2023-05-20T02:10:24;5.90;;;4.53;;
36205;SDS011;22242;48.796;9.930;2023-05-20T02:12:50;4.32;;;3.92;;
36205;SDS011;22242;48.796;9.930;2023-05-20T02:15:19;7.18;;;4.40;;
36205;SDS011;22242;48.796;9.930;2023-05-20T02:17:46;6.05;;;4.43;;
36205;SDS011;22242;48.796;9.930;2023-05-20T02:20:13;5.63;;;4.35;;
36205;SDS011;22242;48.796;9.930;2023-05-20T02:22:40;4.78;;;4.38;;
36205;SDS011;22242;48.796;9.930;2023-05-20T02:25:09;5.43;;;4.80;;
36205;SDS011;22242;48.796;9.930;2023-05-20T02:27:36;5.55;;;4.68;;
36205;SDS011;22242;48.796;9.930;2023-05-20T02:30:05;5.18;;;4.68;;
36205;SDS011;22242;48.796;9.930;2023-05-20T02:32:35;5.07;;;4.57;;
36205;SDS011;22242;48.796;9.930;2023-05-20T02:35:02;6.53;;;5.10;;
36205;SDS011;22242;48.796;9.930;2023-05-20T02:37:29;5.68;;;4.72;;
36205;SDS011;22242;48.796;9.930;2023-05-20T02:39:56;5.57;;;4.97;;
36205;SDS011;22242;48.796;9.930;2023-05-20T02:42:24;5.05;;;4.60;;
36205;SDS011;22242;48.796;9.930;2023-05-20T02:44:50;6.60;;;4.57;;
36205;SDS011;22242;48.796;9.930;2023-05-20T02:47:20;5.18;;;4.68;;
36205;SDS011;22242;48.796;9.930;2023-05-20T02:49:49;6.93;;;4.47;;
36205;SDS011;22242;48.796;9.930;2023-05-20T02:52:16;7.50;;;5.03;;
36205;SDS011;22242;48.796;9.930;2023-05-20T02:54:43;5.60;;;4.70;;
36205;SDS011;22242;48.796;9.930;2023-05-20T02:57:10;5.25;;;4.70;;
36205;SDS011;22242;48.796;9.930;2023-05-20T02:59:37;5.45;;;4.57;;
36205;SDS011;22242;48.796;9.930;2023-05-20T03:02:04;7.22;;;4.55;;
36205;SDS011;22242;48.796;9.930;2023-05-20T03:04:31;5.75;;;4.60;;
36205;SDS011;22242;48.796;9.930;2023-05-20T03:07:04;5.82;;;4.70;;
36205;SDS011;22242;48.796;9.930;2023-05-20T03:09:31;5.25;;;4.32;;
36205;SDS011;22242;48.796;9.930;2023-05-20T03:11:58;7.68;;;5.05;;
36205;SDS011;22242;48.796;9.930;2023-05-20T03:14:25;7.22;;;4.68;;
36205;SDS011;22242;48.796;9.930;2023-05-20T03:16:52;5.18;;;4.68;;
36205;SDS011;22242;48.796;9.930;2023-05-20T03:19:20;5.88;;;4.90;;
36205;SDS011;22242;48.796;9.930;2023-05-20T03:21:47;6.65;;;4.88;;
36205;SDS011;22242;48.796;9.930;2023-05-20T03:24:17;4.80;;;4.38;;
36205;SDS011;22242;48.796;9.930;2023-05-20T03:26:45;6.38;;;4.60;;
36205;SDS011;22242;48.796;9.930;2023-05-20T03:29:13;5.68;;;4.90;;
36205;SDS011;22242;48.796;9.930;2023-05-20T03:31:41;5.25;;;4.78;;
36205;SDS011;22242;48.796;9.930;2023-05-20T03:34:08;5.25;;;4.75;;
36205;SDS011;22242;48.796;9.930;2023-05-20T03:36:35;7.93;;;4.45;;
36205;SDS011;22242;48.796;9.930;2023-05-20T03:39:02;7.78;;;4.95;;
36205;SDS011;22242;48.796;9.930;2023-05-20T03:41:32;5.43;;;4.93;;
36205;SDS011;22242;48.796;9.930;2023-05-20T03:44:00;6.60;;;5.20;;
36205;SDS011;22242;48.796;9.930;2023-05-20T03:46:27;6.65;;;5.22;;
36205;SDS011;22242;48.796;9.930;2023-05-20T03:48:55;6.95;;;5.55;;
36205;SDS011;22242;48.796;9.930;2023-05-20T03:51:22;8.00;;;5.18;;
36205;SDS011;22242;48.796;9.930;2023-05-20T03:53:51;6.10;;;5.25;;
36205;SDS011;22242;48.796;9.930;2023-05-20T03:56:18;8.20;;;5.25;;
36205;SDS011;22242;48.796;9.930;2023-05-20T03:58:47;7.10;;;5.55;;
36205;SDS011;22242;48.796;9.930;2023-05-20T04:01:14;7.85;;;5.40;;
36205;SDS011;22242;48.796;9.930;2023-05-20T04:03:41;5.72;;;5.13;;
36205;SDS011;22242;48.796;9.930;2023-05-20T04:06:08;6.55;;;5.88;;
36205;SDS011;22242;48.796;9.930;2023-05-20T04:08:35;6.38;;;5.65;;
36205;SDS011;22242;48.796;9.930;2023-05-20T04:11:03;7.82;;;5.57;;
36205;SDS011;22242;48.796;9.930;2023-05-20T04:13:30;7.43;;;6.15;;
36205;SDS011;22242;48.796;9.930;2023-05-20T04:15:58;7.25;;;5.30;;
36205;SDS011;22242;48.796;9.930;2023-05-20T04:18:27;5.97;;;5.25;;
36205;SDS011;22242;48.796;9.930;2023-05-20T04:20:56;10.10;;;5.57;;
36205;SDS011;22242;48.796;9.930;2023-05-20T04:23:26;6.57;;;5.95;;
36205;SDS011;22242;48.796;9.930;2023-05-20T04:25:53;5.40;;;4.90;;
36205;SDS011;22242;48.796;9.930;2023-05-20T04:28:22;6.45;;;5.72;;
36205;SDS011;22242;48.796;9.930;2023-05-20T04:30:56;7.93;;;6.15;;
36205;SDS011;22242;48.796;9.930;2023-05-20T04:33:28;6.72;;;5.53;;
36205;SDS011;22242;48.796;9.930;2023-05-20T04:35:55;7.60;;;5.45;;
36205;SDS011;22242;48.796;9.930;2023-05-20T04:38:23;7.60;;;5.22;;
36205;SDS011;22242;48.796;9.930;2023-05-20T04:40:54;7.57;;;5.95;;
36205;SDS011;22242;48.796;9.930;2023-05-20T04:43:23;6.57;;;5.93;;
36205;SDS011;22242;48.796;9.930;2023-05-20T04:45:50;8.68;;;5.28;;
36205;SDS011;22242;48.796;9.930;2023-05-20T04:48:19;8.40;;;5.57;;
36205;SDS011;22242;48.796;9.930;2023-05-20T04:50:47;5.25;;;4.75;;
36205;SDS011;22242;48.796;9.930;2023-05-20T04:53:14;7.63;;;5.82;;
36205;SDS011;22242;48.796;9.930;2023-05-20T04:55:42;7.85;;;5.60;;
36205;SDS011;22242;48.796;9.930;2023-05-20T04:58:10;7.07;;;5.30;;
36205;SDS011;22242;48.796;9.930;2023-05-20T05:00:40;6.72;;;5.30;;
36205;SDS011;22242;48.796;9.930;2023-05-20T05:03:08;7.85;;;5.00;;
36205;SDS011;22242;48.796;9.930;2023-05-20T05:05:38;6.68;;;4.82;;
36205;SDS011;22242;48.796;9.930;2023-05-20T05:08:06;6.43;;;5.30;;
36205;SDS011;22242;48.796;9.930;2023-05-20T05:10:38;5.20;;;4.70;;
36205;SDS011;22242;48.796;9.930;2023-05-20T05:13:07;5.22;;;4.72;;
36205;SDS011;22242;48.796;9.930;2023-05-20T05:15:35;5.63;;;4.32;;
36205;SDS011;22242;48.796;9.930;2023-05-20T05:18:04;6.60;;;5.07;;
36205;SDS011;22242;48.796;9.930;2023-05-20T05:20:32;5.93;;;5.18;;
36205;SDS011;22242;48.796;9.930;2023-05-20T05:23:01;12.25;;;5.35;;
36205;SDS011;22242;48.796;9.930;2023-05-20T05:25:28;10.45;;;5.50;;
36205;SDS011;22242;48.796;9.930;2023-05-20T05:27:58;6.05;;;5.38;;
36205;SDS011;22242;48.796;9.930;2023-05-20T05:30:25;6.65;;;5.13;;
36205;SDS011;22242;48.796;9.930;2023-05-20T05:32:52;7.65;;;5.53;;
36205;SDS011;22242;48.796;9.930;2023-05-20T05:35:20;5.25;;;4.75;;
36205;SDS011;22242;48.796;9.930;2023-05-20T05:37:47;6.00;;;5.40;;
36205;SDS011;22242;48.796;9.930;2023-05-20T05:40:16;6.03;;;5.43;;
36205;SDS011;22242;48.796;9.930;2023-05-20T05:42:43;6.45;;;5.60;;
36205;SDS011;22242;48.796;9.930;2023-05-20T05:45:11;6.93;;;5.63;;
36205;SDS011;22242;48.796;9.930;2023-05-20T05:47:39;6.25;;;5.38;;
36205;SDS011;22242;48.796;9.930;2023-05-20T05:50:06;6.45;;;5.55;;
36205;SDS011;22242;48.796;9.930;2023-05-20T05:52:35;7.90;;;6.10;;
36205;SDS011;22242;48.796;9.930;2023-05-20T05:55:05;9.10;;;6.53;;
36205;SDS011;22242;48.796;9.930;2023-05-20T05:57:35;9.25;;;6.47;;
36205;SDS011;22242;48.796;9.930;2023-05-20T06:00:02;6.68;;;5.90;;
36205;SDS011;22242;48.796;9.930;2023-05-20T06:02:43;7.32;;;5.70;;
36205;SDS011;22242;48.796;9.930;2023-05-20T06:05:13;6.40;;;5.63;;
36205;SDS011;22242;48.796;9.930;2023-05-20T06:07:40;8.98;;;6.00;;
36205;SDS011;22242;48.796;9.930;2023-05-20T06:10:08;6.40;;;5.72;;
36205;SDS011;22242;48.796;9.930;2023-05-20T06:12:37;6.80;;;6.00;;
36205;SDS011;22242;48.796;9.930;2023-05-20T06:15:05;7.00;;;6.30;;
36205;SDS011;22242;48.796;9.930;2023-05-20T06:17:33;7.57;;;6.28;;
36205;SDS011;22242;48.796;9.930;2023-05-20T06:20:00;7.80;;;6.32;;
36205;SDS011;22242;48.796;9.930;2023-05-20T06:22:28;7.95;;;6.25;;
36205;SDS011;22242;48.796;9.930;2023-05-20T06:24:55;8.27;;;5.82;;
36205;SDS011;22242;48.796;9.930;2023-05-20T06:27:25;7.70;;;6.20;;
36205;SDS011;22242;48.796;9.930;2023-05-20T06:29:54;7.97;;;6.75;;
36205;SDS011;22242;48.796;9.930;2023-05-20T06:32:21;7.72;;;6.72;;
36205;SDS011;22242;48.796;9.930;2023-05-20T06:34:49;8.93;;;6.53;;
36205;SDS011;22242;48.796;9.930;2023-05-20T06:37:17;10.10;;;6.90;;
36205;SDS011;22242;48.796;9.930;2023-05-20T06:39:44;6.68;;;5.95;;
36205;SDS011;22242;48.796;9.930;2023-05-20T06:42:11;7.78;;;6.38;;
36205;SDS011;22242;48.796;9.930;2023-05-20T06:47:20;6.97;;;6.28;;
36205;SDS011;22242;48.796;9.930;2023-05-20T06:49:49;9.70;;;6.47;;
36205;SDS011;22242;48.796;9.930;2023-05-20T06:52:16;7.18;;;6.40;;
36205;SDS011;22242;48.796;9.930;2023-05-20T06:54:44;6.75;;;6.05;;
36205;SDS011;22242;48.796;9.930;2023-05-20T06:57:12;7.90;;;6.18;;
36205;SDS011;22242;48.796;9.930;2023-05-20T06:59:39;9.27;;;6.70;;
36205;SDS011;22242;48.796;9.930;2023-05-20T07:02:07;7.38;;;6.40;;
36205;SDS011;22242;48.796;9.930;2023-05-20T07:04:36;6.53;;;5.45;;
36205;SDS011;22242;48.796;9.930;2023-05-20T07:07:03;6.13;;;5.53;;
36205;SDS011;22242;48.796;9.930;2023-05-20T07:09:30;9.02;;;5.97;;
36205;SDS011;22242;48.796;9.930;2023-05-20T07:11:57;7.95;;;6.00;;
36205;SDS011;22242;48.796;9.930;2023-05-20T07:14:25;7.20;;;5.72;;
36205;SDS011;22242;48.796;9.930;2023-05-20T07:16:52;7.32;;;5.72;;
36205;SDS011;22242;48.796;9.930;2023-05-20T07:19:20;7.38;;;6.05;;
36205;SDS011;22242;48.796;9.930;2023-05-20T07:21:49;6.07;;;5.47;;
36205;SDS011;22242;48.796;9.930;2023-05-20T07:24:34;7.80;;;5.55;;
36205;SDS011;22242;48.796;9.930;2023-05-20T07:27:03;8.80;;;5.15;;
36205;SDS011;22242;48.796;9.930;2023-05-20T07:29:31;5.63;;;5.05;;
36205;SDS011;22242;48.796;9.930;2023-05-20T07:31:58;5.38;;;4.88;;
36205;SDS011;22242;48.796;9.930;2023-05-20T07:34:25;9.20;;;5.57;;
36205;SDS011;22242;48.796;9.930;2023-05-20T07:36:54;5.35;;;4.85;;
36205;SDS011;22242;48.796;9.930;2023-05-20T07:39:21;5.80;;;5.20;;
36205;SDS011;22242;48.796;9.930;2023-05-20T07:41:49;5.53;;;4.50;;
36205;SDS011;22242;48.796;9.930;2023-05-20T07:44:16;5.25;;;4.75;;
36205;SDS011;22242;48.796;9.930;2023-05-20T07:46:48;8.23;;;5.22;;
36205;SDS011;22242;48.796;9.930;2023-05-20T07:49:15;6.43;;;4.60;;
36205;SDS011;22242;48.796;9.930;2023-05-20T07:51:43;5.38;;;4.40;;
36205;SDS011;22242;48.796;9.930;2023-05-20T07:54:14;4.85;;;4.35;;
36205;SDS011;22242;48.796;9.930;2023-05-20T07:56:43;6.40;;;4.90;;
36205;SDS011;22242;48.796;9.930;2023-05-20T07:59:11;7.20;;;4.72;;
36205;SDS011;22242;48.796;9.930;2023-05-20T08:01:41;8.15;;;6.50;;
36205;SDS011;22242;48.796;9.930;2023-05-20T08:04:10;9.07;;;7.13;;
36205;SDS011;22242;48.796;9.930;2023-05-20T08:06:37;5.90;;;5.30;;
36205;SDS011;22242;48.796;9.930;2023-05-20T08:09:08;5.15;;;4.75;;
36205;SDS011;22242;48.796;9.930;2023-05-20T08:11:41;4.35;;;4.05;;
36205;SDS011;22242;48.796;9.930;2023-05-20T08:14:08;4.78;;;4.25;;
36205;SDS011;22242;48.796;9.930;2023-05-20T08:16:40;5.22;;;4.20;;
36205;SDS011;22242;48.796;9.930;2023-05-20T08:19:08;5.70;;;4.82;;
36205;SDS011;22242;48.796;9.930;2023-05-20T08:21:35;6.07;;;5.00;;
36205;SDS011;22242;48.796;9.930;2023-05-20T08:24:03;5.32;;;4.32;;
36205;SDS011;22242;48.796;9.930;2023-05-20T08:26:31;5.45;;;4.47;;
36205;SDS011;22242;48.796;9.930;2023-05-20T08:28:59;6.78;;;4.60;;
36205;SDS011;22242;48.796;9.930;2023-05-20T08:31:27;4.50;;;4.10;;
36205;SDS011;22242;48.796;9.930;2023-05-20T08:33:54;5.70;;;4.25;;
36205;SDS011;22242;48.796;9.930;2023-05-20T08:36:22;4.97;;;4.47;;
36205;SDS011;22242;48.796;9.930;2023-05-20T08:38:48;5.25;;;4.75;;
36205;SDS011;22242;48.796;9.930;2023-05-20T08:41:16;6.38;;;5.03;;
36205;SDS011;22242;48.796;9.930;2023-05-20T08:43:45;6.13;;;4.68;;
36205;SDS011;22242;48.796;9.930;2023-05-20T08:46:15;5.72;;;4.38;;
36205;SDS011;22242;48.796;9.930;2023-05-20T08:48:44;6.82;;;4.60;;
36205;SDS011;22242;48.796;9.930;2023-05-20T08:51:11;4.32;;;3.90;;
36205;SDS011;22242;48.796;9.930;2023-05-20T08:53:41;5.70;;;4.00;;
36205;SDS011;22242;48.796;9.930;2023-05-20T08:56:08;4.07;;;3.67;;
36205;SDS011;22242;48.796;9.930;2023-05-20T08:58:37;6.07;;;4.10;;
36205;SDS011;22242;48.796;9.930;2023-05-20T09:01:04;4.53;;;4.13;;
36205;SDS011;22242;48.796;9.930;2023-05-20T09:03:34;6.22;;;4.20;;
36205;SDS011;22242;48.796;9.930;2023-05-20T09:06:04;5.07;;;3.90;;
36205;SDS011;22242;48.796;9.930;2023-05-20T09:08:33;4.50;;;3.50;;
36205;SDS011;22242;48.796;9.930;2023-05-20T09:11:00;3.42;;;3.15;;
36205;SDS011;22242;48.796;9.930;2023-05-20T09:13:29;3.60;;;3.30;;
36205;SDS011;22242;48.796;9.930;2023-05-20T09:15:58;4.30;;;3.60;;
36205;SDS011;22242;48.796;9.930;2023-05-20T09:18:25;4.43;;;3.50;;
36205;SDS011;22242;48.796;9.930;2023-05-20T09:20:55;3.83;;;3.53;;
36205;SDS011;22242;48.796;9.930;2023-05-20T09:23:22;4.75;;;3.40;;
36205;SDS011;22242;48.796;9.930;2023-05-20T09:25:51;7.28;;;4.00;;
36205;SDS011;22242;48.796;9.930;2023-05-20T09:28:18;5.60;;;3.63;;
36205;SDS011;22242;48.796;9.930;2023-05-20T09:30:49;5.20;;;3.42;;
36205;SDS011;22242;48.796;9.930;2023-05-20T09:33:16;4.88;;;3.30;;
36205;SDS011;22242;48.796;9.930;2023-05-20T09:35:44;5.03;;;3.45;;
36205;SDS011;22242;48.796;9.930;2023-05-20T09:38:12;3.85;;;3.55;;
36205;SDS011;22242;48.796;9.930;2023-05-20T09:40:41;4.78;;;4.18;;
36205;SDS011;22242;48.796;9.930;2023-05-20T09:43:11;4.68;;;4.05;;
36205;SDS011;22242;48.796;9.930;2023-05-20T09:45:38;5.00;;;3.95;;
36205;SDS011;22242;48.796;9.930;2023-05-20T09:48:06;5.60;;;4.32;;
36205;SDS011;22242;48.796;9.930;2023-05-20T09:50:34;4.30;;;3.60;;
36205;SDS011;22242;48.796;9.930;2023-05-20T09:53:03;4.78;;;3.42;;
36205;SDS011;22242;48.796;9.930;2023-05-20T09:55:33;3.50;;;3.22;;
36205;SDS011;22242;48.796;9.930;2023-05-20T09:58:01;4.47;;;3.72;;
36205;SDS011;22242;48.796;9.930;2023-05-20T10:00:29;3.90;;;3.60;;
36205;SDS011;22242;48.796;9.930;2023-05-20T10:02:56;4.15;;;3.85;;
36205;SDS011;22242;48.796;9.930;2023-05-20T10:05:24;4.25;;;3.85;;
36205;SDS011;22242;48.796;9.930;2023-05-20T10:07:59;7.10;;;4.20;;
36205;SDS011;22242;48.796;9.930;2023-05-20T10:10:49;4.47;;;4.03;;
36205;SDS011;22242;48.796;9.930;2023-05-20T10:16:22;5.60;;;3.83;;
36205;SDS011;22242;48.796;9.930;2023-05-20T10:18:57;4.40;;;4.00;;
36205;SDS011;22242;48.796;9.930;2023-05-20T10:21:31;8.20;;;4.10;;
36205;SDS011;22242;48.796;9.930;2023-05-20T10:24:04;4.05;;;3.65;;
36205;SDS011;22242;48.796;9.930;2023-05-20T10:26:37;5.85;;;3.72;;
36205;SDS011;22242;48.796;9.930;2023-05-20T10:29:13;5.68;;;3.67;;
36205;SDS011;22242;48.796;9.930;2023-05-20T10:31:44;4.10;;;3.10;;
36205;SDS011;22242;48.796;9.930;2023-05-20T10:34:14;4.35;;;3.25;;
36205;SDS011;22242;48.796;9.930;2023-05-20T10:36:44;3.40;;;3.10;;
36205;SDS011;22242;48.796;9.930;2023-05-20T10:39:15;3.17;;;2.88;;
36205;SDS011;22242;48.796;9.930;2023-05-20T10:41:44;3.45;;;3.15;;
36205;SDS011;22242;48.796;9.930;2023-05-20T10:44:11;4.25;;;3.17;;
36205;SDS011;22242;48.796;9.930;2023-05-20T10:46:38;3.63;;;3.33;;
36205;SDS011;22242;48.796;9.930;2023-05-20T10:49:05;4.65;;;3.13;;
36205;SDS011;22242;48.796;9.930;2023-05-20T10:51:43;3.45;;;3.15;;
36205;SDS011;22242;48.796;9.930;2023-05-20T10:54:12;3.15;;;2.95;;
36205;SDS011;22242;48.796;9.930;2023-05-20T10:56:49;3.30;;;3.00;;
36205;SDS011;22242;48.796;9.930;2023-05-20T10:59:19;3.20;;;2.90;;
36205;SDS011;22242;48.796;9.930;2023-05-20T11:01:47;3.85;;;3.20;;
36205;SDS011;22242;48.796;9.930;2023-05-20T11:04:15;3.38;;;3.08;;
36205;SDS011;22242;48.796;9.930;2023-05-20T11:06:50;3.40;;;3.05;;
36205;SDS011;22242;48.796;9.930;2023-05-20T11:09:20;4.97;;;2.95;;
36205;SDS011;22242;48.796;9.930;2023-05-20T11:11:47;3.60;;;3.30;;
36205;SDS011;22242;48.796;9.930;2023-05-20T11:14:16;4.32;;;3.15;;
36205;SDS011;22242;48.796;9.930;2023-05-20T11:16:44;4.07;;;2.90;;
36205;SDS011;22242;48.796;9.930;2023-05-20T11:19:13;3.22;;;2.92;;
36205;SDS011;22242;48.796;9.930;2023-05-20T11:21:41;3.50;;;3.20;;
36205;SDS011;22242;48.796;9.930;2023-05-20T11:24:09;5.38;;;3.17;;
36205;SDS011;22242;48.796;9.930;2023-05-20T11:26:37;4.18;;;3.17;;
36205;SDS011;22242;48.796;9.930;2023-05-20T11:29:05;3.10;;;2.80;;
36205;SDS011;22242;48.796;9.930;2023-05-20T11:31:34;3.55;;;2.63;;
36205;SDS011;22242;48.796;9.930;2023-05-20T11:34:03;3.38;;;3.08;;
36205;SDS011;22242;48.796;9.930;2023-05-20T11:36:30;3.25;;;2.58;;
36205;SDS011;22242;48.796;9.930;2023-05-20T11:38:57;2.90;;;2.60;;
36205;SDS011;22242;48.796;9.930;2023-05-20T11:41:25;3.95;;;2.92;;
36205;SDS011;22242;48.796;9.930;2023-05-20T11:43:56;2.92;;;2.72;;
36205;SDS011;22242;48.796;9.930;2023-05-20T11:46:23;3.22;;;2.90;;
36205;SDS011;22242;48.796;9.930;2023-05-20T11:48:52;5.05;;;3.00;;
36205;SDS011;22242;48.796;9.930;2023-05-20T11:51:22;3.03;;;2.83;;
36205;SDS011;22242;48.796;9.930;2023-05-20T11:53:51;4.28;;;3.15;;
36205;SDS011;22242;48.796;9.930;2023-05-20T11:56:18;5.88;;;3.28;;
36205;SDS011;22242;48.796;9.930;2023-05-20T11:58:46;3.95;;;3.55;;
36205;SDS011;22242;48.796;9.930;2023-05-20T12:01:14;4.60;;;3.40;;
36205;SDS011;22242;48.796;9.930;2023-05-20T12:03:41;4.38;;;3.05;;
36205;SDS011;22242;48.796;9.930;2023-05-20T12:06:11;5.22;;;3.35;;
36205;SDS011;22242;48.796;9.930;2023-05-20T12:08:38;3.30;;;3.00;;
36205;SDS011;22242;48.796;9.930;2023-05-20T12:11:06;3.70;;;3.40;;
36205;SDS011;22242;48.796;9.930;2023-05-20T12:13:33;3.40;;;3.10;;
36205;SDS011;22242;48.796;9.930;2023-05-20T12:16:00;4.70;;;3.30;;
36205;SDS011;22242;48.796;9.930;2023-05-20T12:18:28;5.85;;;2.97;;
36205;SDS011;22242;48.796;9.930;2023-05-20T12:20:55;3.55;;;2.92;;
36205;SDS011;22242;48.796;9.930;2023-05-20T12:23:23;3.83;;;3.47;;
36205;SDS011;22242;48.796;9.930;2023-05-20T12:25:50;4.60;;;3.40;;
36205;SDS011;22242;48.796;9.930;2023-05-20T12:28:18;5.32;;;3.47;;
36205;SDS011;22242;48.796;9.930;2023-05-20T12:30:45;5.22;;;3.58;;
36205;SDS011;22242;48.796;9.930;2023-05-20T12:33:12;4.07;;;2.90;;
36205;SDS011;22242;48.796;9.930;2023-05-20T12:35:39;3.90;;;2.88;;
36205;SDS011;22242;48.796;9.930;2023-05-20T12:38:07;3.08;;;2.88;;
36205;SDS011;22242;48.796;9.930;2023-05-20T12:40:36;5.50;;;2.70;;
36205;SDS011;22242;48.796;9.930;2023-05-20T12:43:03;3.30;;;3.00;;
36205;SDS011;22242;48.796;9.930;2023-05-20T12:45:31;3.20;;;2.90;;
36205;SDS011;22242;48.796;9.930;2023-05-20T12:47:58;3.58;;;2.75;;
36205;SDS011;22242;48.796;9.930;2023-05-20T12:50:25;5.10;;;2.88;;
36205;SDS011;22242;48.796;9.930;2023-05-20T12:52:52;3.78;;;2.90;;
36205;SDS011;22242;48.796;9.930;2023-05-20T12:55:20;3.50;;;3.20;;
36205;SDS011;22242;48.796;9.930;2023-05-20T12:57:48;5.18;;;3.20;;
36205;SDS011;22242;48.796;9.930;2023-05-20T13:00:16;4.22;;;3.55;;
36205;SDS011;22242;48.796;9.930;2023-05-20T13:02:43;2.85;;;2.65;;
36205;SDS011;22242;48.796;9.930;2023-05-20T13:05:10;4.75;;;3.13;;
36205;SDS011;22242;48.796;9.930;2023-05-20T13:07:37;4.35;;;3.47;;
36205;SDS011;22242;48.796;9.930;2023-05-20T13:10:05;3.63;;;3.33;;
36205;SDS011;22242;48.796;9.930;2023-05-20T13:12:34;3.80;;;3.45;;
36205;SDS011;22242;48.796;9.930;2023-05-20T13:15:04;3.58;;;3.28;;
36205;SDS011;22242;48.796;9.930;2023-05-20T13:17:32;4.70;;;3.50;;
36205;SDS011;22242;48.796;9.930;2023-05-20T13:19:59;4.10;;;3.67;;
36205;SDS011;22242;48.796;9.930;2023-05-20T13:22:26;3.60;;;3.20;;
36205;SDS011;22242;48.796;9.930;2023-05-20T13:24:53;6.82;;;3.88;;
36205;SDS011;22242;48.796;9.930;2023-05-20T13:27:20;4.05;;;3.22;;
36205;SDS011;22242;48.796;9.930;2023-05-20T13:29:47;3.60;;;3.30;;
36205;SDS011;22242;48.796;9.930;2023-05-20T13:32:16;3.72;;;3.40;;
36205;SDS011;22242;48.796;9.930;2023-05-20T13:34:43;4.22;;;3.92;;
36205;SDS011;22242;48.796;9.930;2023-05-20T13:37:10;3.72;;;3.40;;
36205;SDS011;22242;48.796;9.930;2023-05-20T13:39:37;3.35;;;3.05;;
36205;SDS011;22242;48.796;9.930;2023-05-20T13:42:04;4.10;;;3.38;;
36205;SDS011;22242;48.796;9.930;2023-05-20T13:44:32;5.45;;;3.53;;
36205;SDS011;22242;48.796;9.930;2023-05-20T13:46:58;3.97;;;3.63;;
36205;SDS011;22242;48.796;9.930;2023-05-20T13:49:27;4.22;;;3.20;;
36205;SDS011;22242;48.796;9.930;2023-05-20T13:51:54;4.10;;;3.58;;
36205;SDS011;22242;48.796;9.930;2023-05-20T13:54:21;3.75;;;3.45;;
36205;SDS011;22242;48.796;9.930;2023-05-20T13:56:48;4.32;;;3.63;;
36205;SDS011;22242;48.796;9.930;2023-05-20T13:59:15;3.97;;;3.67;;
36205;SDS011;22242;48.796;9.930;2023-05-20T14:01:43;5.03;;;3.70;;
36205;SDS011;22242;48.796;9.930;2023-05-20T14:04:10;6.55;;;3.58;;
36205;SDS011;22242;48.796;9.930;2023-05-20T14:06:39;4.32;;;3.28;;
36205;SDS011;22242;48.796;9.930;2023-05-20T14:09:06;4.60;;;3.58;;
36205;SDS011;22242;48.796;9.930;2023-05-20T14:11:34;4.68;;;3.97;;
36205;SDS011;22242;48.796;9.930;2023-05-20T14:14:02;6.47;;;3.47;;
36205;SDS011;22242;48.796;9.930;2023-05-20T14:16:30;6.45;;;3.78;;
36205;SDS011;22242;48.796;9.930;2023-05-20T14:18:57;5.22;;;3.80;;
36205;SDS011;22242;48.796;9.930;2023-05-20T14:21:24;6.35;;;3.92;;
36205;SDS011;22242;48.796;9.930;2023-05-20T14:23:52;6.68;;;4.38;;
36205;SDS011;22242;48.796;9.930;2023-05-20T14:26:20;7.35;;;3.58;;
36205;SDS011;22242;48.796;9.930;2023-05-20T14:28:47;4.10;;;3.70;;
36205;SDS011;22242;48.796;9.930;2023-05-20T14:31:14;3.63;;;3.33;;
36205;SDS011;22242;48.796;9.930;2023-05-20T14:33:41;4.20;;;3.90;;
36205;SDS011;22242;48.796;9.930;2023-05-20T14:36:08;4.80;;;3.63;;
36205;SDS011;22242;48.796;9.930;2023-05-20T14:38:36;4.07;;;3.60;;
36205;SDS011;22242;48.796;9.930;2023-05-20T14:41:04;5.35;;;4.13;;
36205;SDS011;22242;48.796;9.930;2023-05-20T14:43:32;3.90;;;3.60;;
36205;SDS011;22242;48.796;9.930;2023-05-20T14:45:59;8.38;;;3.45;;
36205;SDS011;22242;48.796;9.930;2023-05-20T14:48:26;4.97;;;3.40;;
36205;SDS011;22242;48.796;9.930;2023-05-20T14:50:53;5.93;;;3.63;;
36205;SDS011;22242;48.796;9.930;2023-05-20T14:53:20;4.43;;;3.55;;
36205;SDS011;22242;48.796;9.930;2023-05-20T14:55:48;4.03;;;3.22;;
36205;SDS011;22242;48.796;9.930;2023-05-20T14:58:16;3.30;;;3.00;;
36205;SDS011;22242;48.796;9.930;2023-05-20T15:00:43;4.60;;;3.17;;